createdAt,value
2018-10-12T00:01:33.949Z,16.52
2018-10-12T00:04:02.781Z,16.56
2018-10-12T00:06:31.512Z,16.56
2018-10-12T00:09:00.191Z,16.60
2018-10-12T00:11:28.832Z,16.61
2018-10-12T00:13:57.552Z,16.64
2018-10-12T00:16:26.294Z,16.66
2018-10-12T00:18:54.891Z,16.69
2018-10-12T00:21:23.611Z,16.73
2018-10-12T00:23:52.344Z,16.77
2018-10-12T00:26:21.292Z,16.80
2018-10-12T00:28:50.106Z,16.82
2018-10-12T00:31:18.926Z,16.83
2018-10-12T00:33:47.648Z,16.86
2018-10-12T00:36:16.425Z,16.85
2018-10-12T00:38:45.319Z,16.87
2018-10-12T00:41:14.084Z,16.84
2018-10-12T00:43:43.096Z,16.83
2018-10-12T00:46:12.104Z,16.83
2018-10-12T00:48:40.948Z,16.85
2018-10-12T00:51:09.743Z,16.85
2018-10-12T00:53:38.440Z,16.89
2018-10-12T00:56:07.517Z,16.91
2018-10-12T00:58:36.224Z,16.93
2018-10-12T01:01:05.006Z,16.95
2018-10-12T01:03:33.701Z,16.95
2018-10-12T01:06:02.780Z,16.96
2018-10-12T01:08:31.428Z,16.92
2018-10-12T01:11:00.211Z,16.93
2018-10-12T01:13:28.856Z,16.92
2018-10-12T01:15:57.623Z,16.93
2018-10-12T01:18:26.273Z,16.95
2018-10-12T01:20:54.905Z,16.98
2018-10-12T01:23:23.747Z,16.96
2018-10-12T01:25:52.386Z,16.95
2018-10-12T01:28:21.073Z,16.97
2018-10-12T01:30:49.700Z,16.97
2018-10-12T01:33:18.502Z,16.99
2018-10-12T01:35:47.341Z,16.99
2018-10-12T01:38:16.041Z,16.98
2018-10-12T01:40:44.560Z,16.97
2018-10-12T01:43:13.384Z,16.94
2018-10-12T01:45:42.212Z,16.95
2018-10-12T01:48:10.930Z,16.98
2018-10-12T01:50:39.643Z,17.01
2018-10-12T01:53:08.336Z,17.02
2018-10-12T01:55:36.892Z,17.02
2018-10-12T01:58:05.675Z,16.99
2018-10-12T02:00:34.256Z,16.96
2018-10-12T02:03:03.500Z,16.98
2018-10-12T02:05:32.456Z,16.96
2018-10-12T02:08:02.570Z,16.95
2018-10-12T02:10:31.170Z,16.96
2018-10-12T02:13:00.072Z,16.95
2018-10-12T02:15:28.732Z,16.97
2018-10-12T02:17:57.430Z,17.01
2018-10-12T02:20:26.030Z,17.04
2018-10-12T02:22:54.803Z,17.05
2018-10-12T02:25:23.467Z,17.05
2018-10-12T02:27:52.156Z,17.04
2018-10-12T02:30:20.844Z,17.05
2018-10-12T02:32:49.531Z,17.05
2018-10-12T02:35:18.281Z,17.04
2018-10-12T02:37:46.878Z,17.01
2018-10-12T02:40:15.414Z,16.98
2018-10-12T02:42:44.179Z,16.94
2018-10-12T02:45:12.865Z,16.95
2018-10-12T02:47:41.558Z,16.96
2018-10-12T02:50:10.391Z,17.01
2018-10-12T02:52:39.348Z,17.05
2018-10-12T02:55:08.190Z,17.09
2018-10-12T02:57:36.880Z,17.14
2018-10-12T03:00:05.661Z,17.17
2018-10-12T03:02:34.261Z,17.22
2018-10-12T03:05:03.681Z,17.25
2018-10-12T03:07:32.438Z,17.26
2018-10-12T03:10:01.964Z,17.31
2018-10-12T03:12:30.711Z,17.31
2018-10-12T03:14:59.313Z,17.34
2018-10-12T03:17:27.994Z,17.36
2018-10-12T03:19:56.702Z,17.37
2018-10-12T03:22:25.284Z,17.37
2018-10-12T03:24:53.858Z,17.37
2018-10-12T03:27:22.491Z,17.37
2018-10-12T03:29:51.164Z,17.36
2018-10-12T03:32:19.900Z,17.33
2018-10-12T03:34:48.574Z,17.29
2018-10-12T03:37:17.541Z,17.26
2018-10-12T03:39:46.170Z,17.22
2018-10-12T03:42:14.888Z,17.18
2018-10-12T03:44:43.676Z,17.13
2018-10-12T03:47:12.496Z,17.10
2018-10-12T03:49:41.223Z,17.08
2018-10-12T03:52:11.031Z,17.07
2018-10-12T03:54:39.827Z,17.06
2018-10-12T03:57:08.594Z,17.04
2018-10-12T03:59:37.276Z,17.00
2018-10-12T04:02:05.891Z,16.95
2018-10-12T04:04:34.592Z,16.91
2018-10-12T04:07:03.268Z,16.88
2018-10-12T04:09:31.901Z,16.85
2018-10-12T04:12:00.461Z,16.80
2018-10-12T04:14:29.022Z,16.79
2018-10-12T04:16:57.526Z,16.73
2018-10-12T04:19:26.263Z,16.69
2018-10-12T04:21:54.999Z,16.67
2018-10-12T04:24:23.605Z,16.65
2018-10-12T04:26:52.183Z,16.63
2018-10-12T04:29:20.703Z,16.57
2018-10-12T04:31:49.335Z,16.61
2018-10-12T04:34:18.027Z,16.64
2018-10-12T04:36:46.622Z,16.67
2018-10-12T04:39:26.477Z,16.69
2018-10-12T04:41:55.096Z,16.66
2018-10-12T04:44:26.757Z,16.59
2018-10-12T04:46:55.912Z,16.54
2018-10-12T04:49:25.454Z,16.46
2018-10-12T04:51:55.904Z,16.43
2018-10-12T04:54:25.050Z,16.42
2018-10-12T04:56:53.906Z,16.37
2018-10-12T04:59:22.853Z,16.37
2018-10-12T05:01:51.474Z,16.35
2018-10-12T05:04:20.260Z,16.36
2018-10-12T05:06:49.052Z,16.35
2018-10-12T05:09:17.746Z,16.36
2018-10-12T05:11:46.319Z,16.31
2018-10-12T05:14:15.010Z,16.28
2018-10-12T05:16:44.412Z,16.22
2018-10-12T05:19:13.122Z,16.25
2018-10-12T05:21:41.905Z,16.25
2018-10-12T05:24:10.675Z,16.24
2018-10-12T05:26:39.309Z,16.22
2018-10-12T05:29:07.920Z,16.22
2018-10-12T05:31:36.655Z,16.23
2018-10-12T05:34:05.396Z,16.20
2018-10-12T05:36:34.025Z,16.20
2018-10-12T05:39:02.796Z,16.21
2018-10-12T05:41:31.396Z,16.21
2018-10-12T05:44:00.147Z,16.26
2018-10-12T05:46:28.847Z,16.24
2018-10-12T05:49:09.031Z,16.22
2018-10-12T05:51:37.954Z,16.18
2018-10-12T05:54:07.024Z,16.19
2018-10-12T05:56:38.521Z,16.28
2018-10-12T05:59:07.852Z,16.34
2018-10-12T06:01:36.823Z,16.37
2018-10-12T06:04:06.413Z,16.37
2018-10-12T06:06:35.275Z,16.37
2018-10-12T06:09:06.193Z,16.25
2018-10-12T06:11:34.932Z,16.26
2018-10-12T06:14:04.511Z,16.24
2018-10-12T06:16:33.244Z,16.22
2018-10-12T06:19:02.022Z,16.21
2018-10-12T06:21:30.654Z,16.17
2018-10-12T06:23:59.344Z,16.17
2018-10-12T06:26:28.399Z,16.15
2018-10-12T06:28:57.011Z,16.13
2018-10-12T06:31:25.594Z,16.11
2018-10-12T06:33:54.541Z,16.11
2018-10-12T06:36:23.415Z,16.10
2018-10-12T06:38:52.132Z,16.08
2018-10-12T06:41:20.948Z,16.03
2018-10-12T06:43:49.799Z,16.06
2018-10-12T06:46:18.493Z,16.08
2018-10-12T06:48:47.510Z,16.10
2018-10-12T06:51:16.276Z,16.14
2018-10-12T06:53:45.026Z,16.16
2018-10-12T06:56:13.825Z,16.22
2018-10-12T06:58:42.506Z,16.25
2018-10-12T07:01:11.214Z,16.32
2018-10-12T07:03:40.196Z,16.37
2018-10-12T07:06:08.637Z,16.42
2018-10-12T07:08:37.304Z,16.49
2018-10-12T07:11:06.294Z,16.56
2018-10-12T07:13:34.962Z,16.60
2018-10-12T07:16:05.376Z,16.64
2018-10-12T07:18:34.180Z,16.70
2018-10-12T07:21:03.019Z,16.77
2018-10-12T07:23:32.074Z,16.83
2018-10-12T07:26:01.185Z,16.87
2018-10-12T07:28:29.866Z,16.90
2018-10-12T07:30:58.904Z,16.95
2018-10-12T07:33:27.792Z,17.01
2018-10-12T07:35:56.518Z,17.07
2018-10-12T07:38:26.289Z,17.13
2018-10-12T07:40:55.187Z,17.19
2018-10-12T07:43:24.021Z,17.29
2018-10-12T07:45:52.695Z,17.37
2018-10-12T07:48:21.490Z,17.42
2018-10-12T07:50:50.309Z,17.51
2018-10-12T07:53:19.274Z,17.59
2018-10-12T07:55:48.152Z,17.65
2018-10-12T07:58:17.048Z,17.72
2018-10-12T08:00:46.373Z,17.79
2018-10-12T08:03:15.217Z,17.85
2018-10-12T08:05:44.029Z,17.92
2018-10-12T08:08:14.059Z,18.00
2018-10-12T08:10:42.843Z,18.07
2018-10-12T08:13:11.664Z,18.14
2018-10-12T08:15:40.545Z,18.22
2018-10-12T08:18:09.518Z,18.27
2018-10-12T08:20:38.341Z,18.35
2018-10-12T08:23:07.815Z,18.39
2018-10-12T08:25:36.980Z,18.46
2018-10-12T08:28:05.697Z,18.55
2018-10-12T08:30:34.717Z,18.63
2018-10-12T08:33:03.823Z,18.68
2018-10-12T08:35:32.744Z,18.76
2018-10-12T08:38:02.046Z,18.80
2018-10-12T08:40:30.696Z,18.86
2018-10-12T08:42:59.415Z,18.96
2018-10-12T08:45:28.331Z,19.01
2018-10-12T08:47:57.234Z,19.05
2018-10-12T08:50:25.918Z,19.09
2018-10-12T08:52:54.779Z,19.12
2018-10-12T08:55:23.617Z,19.16
2018-10-12T08:57:52.631Z,19.23
2018-10-12T09:00:22.070Z,19.28
2018-10-12T09:02:50.860Z,19.34
2018-10-12T09:05:19.851Z,19.40
2018-10-12T09:07:48.570Z,19.51
2018-10-12T09:10:17.340Z,19.61
2018-10-12T09:12:46.892Z,19.68
2018-10-12T09:15:15.640Z,19.75
2018-10-12T09:17:44.511Z,19.80
2018-10-12T09:20:13.390Z,19.87
2018-10-12T09:22:42.237Z,19.93
2018-10-12T09:25:11.189Z,19.99
2018-10-12T09:27:40.136Z,20.05
2018-10-12T09:30:09.007Z,20.17
2018-10-12T09:32:37.676Z,20.24
2018-10-12T09:35:06.783Z,20.33
2018-10-12T09:37:36.071Z,20.40
2018-10-12T09:40:05.552Z,20.52
2018-10-12T09:42:34.240Z,20.61
2018-10-12T09:45:04.030Z,20.68
2018-10-12T09:47:32.717Z,20.74
2018-10-12T09:50:02.455Z,20.85
2018-10-12T09:52:31.067Z,20.91
2018-10-12T09:54:59.880Z,20.99
2018-10-12T09:57:33.748Z,21.04
2018-10-12T10:00:02.604Z,21.10
2018-10-12T10:02:36.465Z,21.17
2018-10-12T10:05:08.212Z,21.21
2018-10-12T10:07:37.176Z,21.27
2018-10-12T10:10:06.200Z,21.36
2018-10-12T10:12:34.839Z,21.43
2018-10-12T10:15:04.703Z,21.50
2018-10-12T10:17:33.427Z,21.54
2018-10-12T10:20:02.644Z,21.57
2018-10-12T10:22:31.391Z,21.61
2018-10-12T10:24:59.961Z,21.63
2018-10-12T10:27:28.802Z,21.66
2018-10-12T10:29:57.417Z,21.78
2018-10-12T10:32:26.060Z,21.82
2018-10-12T10:34:54.856Z,21.92
2018-10-12T10:37:23.688Z,21.96
2018-10-12T10:39:52.363Z,21.97
2018-10-12T10:42:21.676Z,21.99
2018-10-12T10:44:50.424Z,22.03
2018-10-12T10:47:19.319Z,22.13
2018-10-12T10:49:48.021Z,22.20
2018-10-12T10:52:17.736Z,22.30
2018-10-12T10:54:46.607Z,22.40
2018-10-12T10:57:15.228Z,22.49
2018-10-12T10:59:43.944Z,22.54
2018-10-12T11:02:12.572Z,22.62
2018-10-12T11:04:41.169Z,22.68
2018-10-12T11:07:09.808Z,22.73
2018-10-12T11:09:38.524Z,22.84
2018-10-12T11:12:07.357Z,22.95
2018-10-12T11:14:36.064Z,23.00
2018-10-12T11:17:05.277Z,23.05
2018-10-12T11:19:34.071Z,23.10
2018-10-12T11:22:03.059Z,23.22
2018-10-12T11:24:31.942Z,23.31
2018-10-12T11:27:00.562Z,23.37
2018-10-12T11:29:29.202Z,23.46
2018-10-12T11:31:57.879Z,23.52
2018-10-12T11:34:27.102Z,23.56
2018-10-12T11:36:55.745Z,23.61
2018-10-12T11:39:24.620Z,23.67
2018-10-12T11:41:53.252Z,23.72
2018-10-12T11:44:22.084Z,23.76
2018-10-12T11:46:51.356Z,23.84
2018-10-12T11:49:20.143Z,23.93
2018-10-12T11:51:49.084Z,24.00
2018-10-12T11:54:17.864Z,24.07
2018-10-12T11:56:46.595Z,24.14
2018-10-12T11:59:15.353Z,24.25
2018-10-12T12:01:44.158Z,24.34
2018-10-12T12:04:13.095Z,24.38
2018-10-12T12:06:41.930Z,24.41
2018-10-12T12:09:10.692Z,24.45
2018-10-12T12:11:39.402Z,24.48
2018-10-12T12:14:08.851Z,24.56
2018-10-12T12:16:37.472Z,24.62
2018-10-12T12:19:06.205Z,24.66
2018-10-12T12:21:34.947Z,24.68
2018-10-12T12:24:04.961Z,24.74
2018-10-12T12:26:33.804Z,24.78
2018-10-12T12:29:03.264Z,24.87
2018-10-12T12:31:31.905Z,24.91
2018-10-12T12:34:00.803Z,24.97
2018-10-12T12:36:29.669Z,25.03
2018-10-12T12:38:58.387Z,25.07
2018-10-12T12:41:27.223Z,25.12
2018-10-12T12:43:55.871Z,25.18
2018-10-12T12:46:24.642Z,25.28
2018-10-12T12:48:53.783Z,25.32
2018-10-12T12:51:22.300Z,25.41
2018-10-12T12:53:50.971Z,25.47
2018-10-12T12:56:19.501Z,25.51
2018-10-12T12:58:48.199Z,25.52
2018-10-12T13:01:17.043Z,25.50
2018-10-12T13:03:45.685Z,25.50
2018-10-12T13:06:14.291Z,25.42
2018-10-12T13:08:43.108Z,25.28
2018-10-12T13:11:11.742Z,25.20
2018-10-12T13:13:40.481Z,25.09
2018-10-12T13:16:09.665Z,24.97
2018-10-12T13:18:38.261Z,24.85
2018-10-12T13:21:07.052Z,24.74
2018-10-12T13:23:35.858Z,24.56
2018-10-12T13:26:05.153Z,24.40
2018-10-12T13:28:34.249Z,24.29
2018-10-12T13:31:03.781Z,24.23
2018-10-12T13:33:32.431Z,24.20
2018-10-12T13:36:01.964Z,24.17
2018-10-12T13:38:31.236Z,24.13
2018-10-12T13:40:59.912Z,24.08
2018-10-12T13:43:28.683Z,24.04
2018-10-12T13:45:57.430Z,24.04
2018-10-12T13:48:26.147Z,24.00
2018-10-12T13:50:54.983Z,23.96
2018-10-12T13:53:23.877Z,23.92
2018-10-12T13:55:52.551Z,23.87
2018-10-12T13:58:21.261Z,23.92
2018-10-12T14:00:50.328Z,23.89
2018-10-12T14:03:19.121Z,23.86
2018-10-12T14:05:47.813Z,23.85
2018-10-12T14:08:16.599Z,23.83
2018-10-12T14:10:45.553Z,23.84
2018-10-12T14:13:14.971Z,23.84
2018-10-12T14:15:43.649Z,23.87
2018-10-12T14:18:12.663Z,23.87
2018-10-12T14:20:41.426Z,23.89
2018-10-12T14:23:10.341Z,23.89
2018-10-12T14:25:40.809Z,23.86
2018-10-12T14:28:09.871Z,23.80
2018-10-12T14:30:38.962Z,23.76
2018-10-12T14:33:08.181Z,23.80
2018-10-12T14:35:37.584Z,23.79
2018-10-12T14:38:06.401Z,23.81
2018-10-12T14:40:35.016Z,23.76
2018-10-12T14:43:04.362Z,23.72
2018-10-12T14:45:33.245Z,23.66
2018-10-12T14:48:03.896Z,23.66
2018-10-12T14:50:32.719Z,23.62
2018-10-12T14:53:03.265Z,23.55
2018-10-12T14:55:32.150Z,23.52
2018-10-12T14:58:01.171Z,23.49
2018-10-12T15:00:30.021Z,23.49
2018-10-12T15:02:58.946Z,23.46
2018-10-12T15:05:27.643Z,23.39
2018-10-12T15:07:56.441Z,23.34
2018-10-12T15:10:25.328Z,23.26
2018-10-12T15:12:54.139Z,23.22
2018-10-12T15:15:25.236Z,23.20
2018-10-12T15:17:54.838Z,23.18
2018-10-12T15:20:23.911Z,23.14
2018-10-12T15:22:52.721Z,23.11
2018-10-12T15:25:21.434Z,23.10
2018-10-12T15:27:50.113Z,23.11
2018-10-12T15:30:19.286Z,23.10
2018-10-12T15:32:48.028Z,23.06
2018-10-12T15:35:16.764Z,23.00
2018-10-12T15:37:46.092Z,22.97
2018-10-12T15:40:14.856Z,22.91
2018-10-12T15:42:44.274Z,22.86
2018-10-12T15:45:13.085Z,22.82
2018-10-12T15:47:41.921Z,22.75
2018-10-12T15:50:11.283Z,22.72
2018-10-12T15:52:40.204Z,22.71
2018-10-12T15:55:09.105Z,22.68
2018-10-12T15:57:37.917Z,22.64
2018-10-12T16:00:06.863Z,22.62
2018-10-12T16:02:35.806Z,22.56
2018-10-12T16:05:04.770Z,22.51
2018-10-12T16:07:33.654Z,22.47
2018-10-12T16:10:05.828Z,22.41
2018-10-12T16:12:35.289Z,22.35
2018-10-12T16:15:05.324Z,22.29
2018-10-12T16:17:34.036Z,22.26
2018-10-12T16:20:03.484Z,22.21
2018-10-12T16:22:33.272Z,22.18
2018-10-12T16:25:14.333Z,22.13
2018-10-12T16:27:43.337Z,22.07
2018-10-12T16:30:11.997Z,22.02
2018-10-12T16:32:40.798Z,21.97
2018-10-12T16:35:09.577Z,21.94
2018-10-12T16:37:38.482Z,21.89
2018-10-12T16:40:07.352Z,21.87
2018-10-12T16:42:36.202Z,21.82
2018-10-12T16:45:05.347Z,21.77
2018-10-12T16:47:34.093Z,21.72
2018-10-12T16:50:04.292Z,21.66
2018-10-12T16:52:33.251Z,21.62
2018-10-12T16:55:01.983Z,21.56
2018-10-12T16:57:32.256Z,21.51
2018-10-12T17:00:02.484Z,21.49
2018-10-12T17:02:31.273Z,21.46
2018-10-12T17:05:02.548Z,21.45
2018-10-12T17:07:31.402Z,21.42
2018-10-12T17:10:00.552Z,21.38
2018-10-12T17:12:30.455Z,21.37
2018-10-12T17:14:59.157Z,21.37
2018-10-12T17:17:27.955Z,21.35
2018-10-12T17:19:56.641Z,21.31
2018-10-12T17:22:25.428Z,21.31
2018-10-12T17:24:54.167Z,21.27
2018-10-12T17:27:22.875Z,21.24
2018-10-12T17:29:51.676Z,21.20
2018-10-12T17:32:20.372Z,21.15
2018-10-12T17:34:49.106Z,21.07
2018-10-12T17:37:18.094Z,21.01
2018-10-12T17:39:46.845Z,20.97
2018-10-12T17:42:17.047Z,20.89
2018-10-12T17:44:46.528Z,20.84
2018-10-12T17:47:16.003Z,20.77
2018-10-12T17:49:45.304Z,20.68
2018-10-12T17:52:14.315Z,20.65
2018-10-12T17:54:43.095Z,20.60
2018-10-12T17:57:11.879Z,20.57
2018-10-12T17:59:40.811Z,20.54
2018-10-12T18:02:09.730Z,20.52
2018-10-12T18:04:39.157Z,20.49
2018-10-12T18:07:07.808Z,20.46
2018-10-12T18:09:36.696Z,20.44
2018-10-12T18:12:05.728Z,20.43
2018-10-12T18:14:34.608Z,20.42
2018-10-12T18:17:04.415Z,20.41
2018-10-12T18:19:33.318Z,20.39
2018-10-12T18:22:02.013Z,20.38
2018-10-12T18:24:30.740Z,20.37
2018-10-12T18:26:59.808Z,20.36
2018-10-12T18:29:28.743Z,20.34
2018-10-12T18:31:57.349Z,20.32
2018-10-12T18:34:26.119Z,20.29
2018-10-12T18:36:55.109Z,20.27
2018-10-12T18:39:23.879Z,20.23
2018-10-12T18:41:52.615Z,20.22
2018-10-12T18:44:21.290Z,20.22
2018-10-12T18:46:49.943Z,20.20
2018-10-12T18:49:18.634Z,20.19
2018-10-12T18:51:47.465Z,20.19
2018-10-12T18:54:16.276Z,20.17
2018-10-12T18:56:44.884Z,20.19
2018-10-12T18:59:13.700Z,20.17
2018-10-12T19:01:42.358Z,20.16
2018-10-12T19:04:10.987Z,20.15
2018-10-12T19:06:39.593Z,20.16
2018-10-12T19:09:09.813Z,20.12
2018-10-12T19:11:41.678Z,20.14
2018-10-12T19:14:10.513Z,20.14
2018-10-12T19:16:39.299Z,20.15
2018-10-12T19:19:08.636Z,20.13
2018-10-12T19:21:37.436Z,20.11
2018-10-12T19:24:06.228Z,20.11
2018-10-12T19:26:35.294Z,20.11
2018-10-12T19:29:05.491Z,20.10
2018-10-12T19:31:34.288Z,20.09
2018-10-12T19:34:03.739Z,20.06
2018-10-12T19:36:32.581Z,20.04
2018-10-12T19:40:30.596Z,20.03
2018-10-12T19:42:59.374Z,19.99
2018-10-12T19:45:29.264Z,19.95
2018-10-12T19:47:57.980Z,19.94
2018-10-12T19:50:26.896Z,19.92
2018-10-12T19:52:56.565Z,19.89
2018-10-12T19:55:25.378Z,19.86
2018-10-12T19:57:54.018Z,19.85
2018-10-12T20:00:22.703Z,19.83
2018-10-12T20:05:34.360Z,19.78
2018-10-12T20:08:04.690Z,19.73
2018-10-12T20:10:33.543Z,19.73
2018-10-12T20:13:02.960Z,19.72
2018-10-12T20:15:31.798Z,19.74
2018-10-12T20:18:00.649Z,19.70
2018-10-12T20:20:29.395Z,19.68
2018-10-12T20:22:58.198Z,19.63
2018-10-12T20:25:26.991Z,19.61
2018-10-12T20:27:55.628Z,19.56
2018-10-12T20:30:24.376Z,19.57
2018-10-12T20:32:53.554Z,19.57
2018-10-12T20:35:22.482Z,19.56
2018-10-12T20:37:51.559Z,19.54
2018-10-12T20:40:20.864Z,19.53
2018-10-12T20:42:49.901Z,19.51
2018-10-12T20:45:19.215Z,19.47
2018-10-12T20:47:47.957Z,19.46
2018-10-12T20:50:16.829Z,19.48
2018-10-12T20:52:45.685Z,19.51
2018-10-12T20:55:14.530Z,19.51
2018-10-12T20:57:47.264Z,19.53
2018-10-12T21:00:17.590Z,19.53
2018-10-12T21:02:47.079Z,19.53
2018-10-12T21:05:17.051Z,19.52
2018-10-12T21:07:46.233Z,19.51
2018-10-12T21:10:15.376Z,19.52
2018-10-12T21:12:44.276Z,19.52
2018-10-12T21:15:13.135Z,19.52
2018-10-12T21:17:42.028Z,19.50
2018-10-12T21:20:10.988Z,19.52
2018-10-12T21:22:39.933Z,19.51
2018-10-12T21:25:09.802Z,19.53
2018-10-12T21:27:38.720Z,19.52
2018-10-12T21:30:07.575Z,19.51
2018-10-12T21:32:36.249Z,19.52
2018-10-12T21:35:06.060Z,19.48
2018-10-12T21:37:35.013Z,19.49
2018-10-12T21:40:05.357Z,19.48
2018-10-12T21:42:34.168Z,19.46
2018-10-12T21:45:02.981Z,19.45
2018-10-12T21:47:31.780Z,19.44
2018-10-12T21:50:00.655Z,19.43
2018-10-12T21:52:29.420Z,19.47
2018-10-12T21:54:58.163Z,19.47
2018-10-12T21:57:26.901Z,19.50
2018-10-12T21:59:56.261Z,19.50
2018-10-12T22:02:25.048Z,19.50
2018-10-12T22:04:53.745Z,19.47
2018-10-12T22:07:22.562Z,19.47
2018-10-12T22:09:52.296Z,19.43
2018-10-12T22:12:21.017Z,19.38
2018-10-12T22:14:49.758Z,19.38
2018-10-12T22:17:18.592Z,19.34
2018-10-12T22:19:47.632Z,19.33
2018-10-12T22:22:17.033Z,19.32
2018-10-12T22:24:45.862Z,19.34
2018-10-12T22:27:14.655Z,19.33
2018-10-12T22:29:43.343Z,19.34
2018-10-12T22:32:12.310Z,19.34
2018-10-12T22:34:41.806Z,19.30
2018-10-12T22:37:10.555Z,19.27
2018-10-12T22:39:42.025Z,19.21
2018-10-12T22:42:11.445Z,19.13
2018-10-12T22:44:40.323Z,19.11
2018-10-12T22:47:09.661Z,19.08
2018-10-12T22:49:38.438Z,19.06
2018-10-12T22:52:08.490Z,19.03
2018-10-12T22:54:37.379Z,18.97
2018-10-12T22:57:06.352Z,18.99
2018-10-12T22:59:35.152Z,18.98
2018-10-12T23:02:04.350Z,18.98
2018-10-12T23:04:33.483Z,18.96
2018-10-12T23:07:03.615Z,18.93
2018-10-12T23:09:32.484Z,18.92
2018-10-12T23:12:02.590Z,18.93
2018-10-12T23:14:31.580Z,18.94
2018-10-12T23:17:00.523Z,18.95
2018-10-12T23:19:29.174Z,18.95
2018-10-12T23:21:58.014Z,18.95
2018-10-12T23:24:26.754Z,18.96
2018-10-12T23:26:55.530Z,18.97
2018-10-12T23:29:24.121Z,19.02
2018-10-12T23:31:53.071Z,19.03
2018-10-12T23:34:21.864Z,19.02
2018-10-12T23:36:50.634Z,19.01
2018-10-12T23:39:19.231Z,18.94
2018-10-12T23:41:48.060Z,18.91
2018-10-12T23:44:16.603Z,18.88
2018-10-12T23:46:45.292Z,18.89
2018-10-12T23:49:14.113Z,18.84
2018-10-12T23:51:42.970Z,18.84
2018-10-12T23:54:11.560Z,18.85
2018-10-12T23:56:40.329Z,18.83
2018-10-12T23:59:08.955Z,18.81
